Terminal Aerodrome Forecast
Issued by NWS

Home | Current Version | Previous Version | Text Only | Print | Product List | Glossary On
Versions: 1 2 3 4 5 6 7 8 9 10 11 12 13 14
000
FTUS46 KSGX 011731
TAFSNA
TAF
KSNA 011731Z 0118/0218 VRB06KT P6SM VCSH BKN100 BKN150
     FM012000 22009KT P6SM VCSH BKN100 BKN150
     FM020400 VRB05KT P6SM SCT010 SCT100 SCT250
      TEMPO 0212/0215 BKN010=

USA.gov is the U.S. government's official web portal to all federal, state and local government web resources and services.